Nearby METAR Reports

 

KSJC - San Jose, California, USA
Distance from station: NE 14km
Updated: 23/02/2019 08:53
Mostly cloudy
Mostly cloudy
 Wind from calm
Wind: Calm
Temperature: 6°C
Dew Point: 1°C
Humidity: 71%
Barometer: 1027.8 hPa
Clouds: Mostly cloudy
Visibility: 16 km
Cloud details: Few Clouds 914 m
Few Clouds 1829 m
Mostly cloudy 3048 m
2019/02/23 16:53 KSJC 231653Z 00000KT 10SM FEW030 FEW060 BKN100 06/01 A3035 RMK AO2 SLP276 T00610006 $
KNUQ - Moffett Nas/Mtn, California, USA
Distance from station: N 14km
Updated: 23/02/2019 08:56
Clear
Clear
 Wind from SE
Wind: SE 6 km/h
Temperature: 7°C
Dew Point: 1°C
Humidity: 66%
Barometer: 1027.8 hPa
Clouds: Clear
Visibility: 16 km
2019/02/23 16:56 KNUQ 231656Z 13003KT 10SM CLR 07/01 A3035 RMK AO2 SLP280 T00670006 $
 
KPAO - Palo Alto, California, USA
Distance from station: NNW 23km
Updated: 23/02/2019 08:47
Partly cloudy
Partly cloudy
 Wind from calm
Wind: Calm
Barometer: 1028.1 hPa
Clouds: Partly cloudy
Visibility: 16 km
Cloud details: Few Clouds 1524 m
Partly cloudy 3658 m
2019/02/23 16:47 KPAO 231647Z 00000KT 10SM FEW050 SCT120 A3036 RMK WIND ESTIMATED
KRHV - San Jose/Reid, California, USA
Distance from station: ENE 19km
Updated: 23/02/2019 07:47
NOT Current
Partly cloudy
Partly cloudy
 Wind from calm
Wind: Calm
Temperature: 3°C
Dew Point: 1°C
Humidity: 87%
Barometer: 1026.4 hPa
Clouds: Partly cloudy
Visibility: 16 km
Cloud details: Partly cloudy 3658 m
2019/02/23 15:47 KRHV 231547Z 00000KT 10SM SCT120 03/01 A3031
 
KOAK - Oakland, California, USA
Distance from station: NNW 50km
Updated: 23/02/2019 08:53
Mostly cloudy
Mostly cloudy
 Wind from ESE
Wind: ESE 11 km/h
Temperature: 8°C
Wind Chill: 6°C
Dew Point: 1°C
Humidity: 62%
Barometer: 1027.8 hPa
Clouds: Mostly cloudy
Visibility: 16 km
Cloud details: Few Clouds 671 m
Partly cloudy 3353 m
Mostly cloudy 6096 m
2019/02/23 16:53 KOAK 231653Z 12006KT 10SM FEW022 SCT110 BKN200 08/01 A3035 RMK AO2 SLP276 T00780011
KSQL - San Carlos Airpo, California, USA
Distance from station: NW 34km
Updated: 23/02/2019 08:47
Few Clouds
Few Clouds
 Wind from calm
Wind: Calm
Temperature: 6°C
Dew Point: 2°C
Humidity: 76%
Barometer: 1027.8 hPa
Clouds: Few Clouds
Visibility: 16 km
Cloud details: Few Clouds 1524 m
2019/02/23 16:47 KSQL 231647Z 00000KT 10SM FEW050 06/02 A3035
 
KSFO - San Francisco, California, USA
Distance from station: NW 49km
Updated: 23/02/2019 08:56
Partly cloudy
Partly cloudy
 Wind from SE
Wind: SE 7 km/h
Temperature: 7°C
Wind Chill: 6°C
Dew Point: 2°C
Humidity: 71%
Barometer: 1027.4 hPa
Clouds: Partly cloudy
Visibility: 16 km
Cloud details: Few Clouds 640 m
Partly cloudy 6096 m
2019/02/23 16:56 KSFO 231656Z 13004KT 10SM FEW021 SCT200 07/02 A3034 RMK AO2 SLP273 T00670022
KE16 - San Martin, California, USA
Distance from station: ESE 43km
Updated: 23/02/2019 08:55
Clear
Clear
 Wind from SE
Wind: SE 7 km/h
Temperature: 3°C
Wind Chill: 1°C
Dew Point: 0°C
Humidity: 81%
Barometer: 1028.4 hPa
Clouds: Clear
Visibility: 16 km
2019/02/23 16:55 KE16 231655Z AUTO 14004KT 10SM CLR 03/00 A3037 RMK AO2
 
KWVI - Watsonville, California, USA
Distance from station: SSE 44km
Updated: 23/02/2019 08:53
Clear
Clear
 Wind from calm
Wind: Calm
Temperature: 6°C
Dew Point: 1°C
Humidity: 71%
Barometer: 1028.1 hPa
Clouds: Clear
Visibility: 16 km
2019/02/23 16:53 KWVI 231653Z AUTO 00000KT 10SM CLR 06/01 A3036 RMK AO2 SLP280 T00560011
KHAF - Half Moon Bay, California, USA
Distance from station: WNW 50km
Updated: 13/02/2019 14:15
NOT Current
Light rain, Overcast
Light rain, Overcast
 Wind from S
Wind: S 54 km/h, Gust: 69 km/h
Temperature: 13°C
Dew Point: 12°C
Humidity: 94%
Barometer: 1000.3 hPa
Summary: Light rain
Clouds: Overcast
Visibility: 1.2 km
Cloud details: Overcast 213 m
2019/02/13 22:15 KHAF 132215Z AUTO 17029G37KT 3/4SM -RA OVC007 13/12 A2954 RMK AO2
 
KHWD - Hayward, California, USA
Distance from station: N 44km
Updated: 23/02/2019 08:54
Mostly cloudy
Mostly cloudy
 Wind from calm
Wind: Calm
Temperature: 8°C
Dew Point: 2°C
Humidity: 66%
Barometer: 1027.8 hPa
Clouds: Mostly cloudy
Visibility: 16 km
Cloud details: Mostly cloudy 3353 m
2019/02/23 16:54 KHWD 231654Z 00000KT 10SM BKN110 08/02 A3035 RMK AO2 SLP285 T00780017
KLVK - Livermore, California, USA
Distance from station: NNE 51km
Updated: 23/02/2019 08:53
Mostly cloudy
Mostly cloudy
 Wind from calm
Wind: Calm
Temperature: 4°C
Dew Point: -1°C
Humidity: 70%
Barometer: 1027.4 hPa
Clouds: Mostly cloudy
Visibility: 16 km
Cloud details: Mostly cloudy 3353 m
2019/02/23 16:53 KLVK 231653Z 00000KT 10SM BKN110 04/M01 A3034 RMK AO2 SLP275 T00391006